createdAt,value
2023-07-03T00:00:20.565Z,99538.00
2023-07-03T00:03:23.653Z,99544.06
2023-07-03T00:06:25.767Z,99548.91
2023-07-03T00:09:27.690Z,99539.03
2023-07-03T00:12:29.676Z,99537.00
2023-07-03T00:15:32.067Z,99541.72
2023-07-03T00:18:34.015Z,99541.72
2023-07-03T00:21:44.963Z,99534.13
2023-07-03T00:24:47.099Z,99539.19
2023-07-03T00:27:49.244Z,99546.75
2023-07-03T00:30:51.235Z,99539.38
2023-07-03T00:33:53.101Z,99539.38
2023-07-03T00:36:55.921Z,99544.25
2023-07-03T00:39:57.892Z,99542.53
2023-07-03T00:43:00.231Z,99536.00
2023-07-03T00:46:02.308Z,99543.09
2023-07-03T00:49:06.075Z,99548.59
2023-07-03T00:52:10.853Z,99540.69
2023-07-03T00:55:14.932Z,99540.41
2023-07-03T00:58:17.025Z,99532.97
2023-07-03T01:01:35.643Z,99530.28
2023-07-03T01:04:56.901Z,99521.41
2023-07-03T01:08:00.467Z,99526.25
2023-07-03T01:11:02.878Z,99520.56
2023-07-03T01:14:08.543Z,99522.06
2023-07-03T01:17:11.870Z,99516.53
2023-07-03T01:20:18.204Z,99501.91
2023-07-03T01:23:43.628Z,99504.78
2023-07-03T01:26:47.554Z,99506.66
2023-07-03T01:29:53.990Z,99506.50
2023-07-03T01:32:57.916Z,99510.72
2023-07-03T01:36:01.300Z,99511.69
2023-07-03T01:39:04.220Z,99510.22
2023-07-03T01:42:08.103Z,99507.91
2023-07-03T01:45:10.961Z,99495.16
2023-07-03T01:48:13.036Z,99500.88
2023-07-03T01:51:21.557Z,99502.25
2023-07-03T01:54:32.441Z,99496.72
2023-07-03T01:57:48.085Z,99507.13
2023-07-03T02:00:56.349Z,99505.63
2023-07-03T02:04:08.042Z,99506.44
2023-07-03T02:07:13.058Z,99505.81
2023-07-03T02:10:15.096Z,99509.12
2023-07-03T02:13:17.318Z,99512.00
2023-07-03T02:16:19.285Z,99516.56
2023-07-03T02:19:28.649Z,99523.13
2023-07-03T02:22:30.647Z,99525.97
2023-07-03T02:25:32.642Z,99528.78
2023-07-03T02:28:35.832Z,99539.19
2023-07-03T02:31:38.161Z,99550.09
2023-07-03T02:34:40.450Z,99560.19
2023-07-03T02:37:42.350Z,99568.06
2023-07-03T02:40:44.599Z,99566.81
2023-07-03T02:43:46.562Z,99563.31
2023-07-03T02:46:48.685Z,99568.50
2023-07-03T02:49:50.748Z,99560.97
2023-07-03T02:52:52.726Z,99559.97
2023-07-03T02:55:57.739Z,99562.78
2023-07-03T02:58:59.715Z,99565.31
2023-07-03T03:02:01.822Z,99558.16
2023-07-03T03:05:03.981Z,99563.50
2023-07-03T03:08:06.046Z,99543.69
2023-07-03T03:11:08.179Z,99559.97
2023-07-03T03:14:10.233Z,99563.97
2023-07-03T03:17:12.157Z,99566.00
2023-07-03T03:20:17.272Z,99566.66
2023-07-03T03:23:19.252Z,99569.03
2023-07-03T03:26:21.750Z,99546.72
2023-07-03T03:29:23.827Z,99568.19
2023-07-03T03:32:26.645Z,99554.09
2023-07-03T03:35:28.600Z,99570.88
2023-07-03T03:38:30.571Z,99571.22
2023-07-03T03:41:32.687Z,99579.25
2023-07-03T03:44:34.930Z,99589.81
2023-07-03T03:47:36.982Z,99589.44
2023-07-03T03:50:39.420Z,99597.97
2023-07-03T03:53:41.564Z,99609.47
2023-07-03T03:56:43.564Z,99616.81
2023-07-03T03:59:45.673Z,99621.63
2023-07-03T04:02:48.314Z,99623.28
2023-07-03T04:05:50.693Z,99622.44
2023-07-03T04:08:53.205Z,99622.38
2023-07-03T04:11:55.561Z,99626.28
2023-07-03T04:14:57.525Z,99618.13
2023-07-03T04:17:59.614Z,99631.22
2023-07-03T04:21:01.592Z,99626.69
2023-07-03T04:24:03.724Z,99613.31
2023-07-03T04:27:06.430Z,99618.19
2023-07-03T04:30:09.311Z,99622.56
2023-07-03T04:33:11.301Z,99621.59
2023-07-03T04:36:14.368Z,99632.69
2023-07-03T04:39:17.106Z,99636.69
2023-07-03T04:42:19.010Z,99622.91
2023-07-03T04:45:22.718Z,99629.63
2023-07-03T04:48:24.684Z,99634.00
2023-07-03T04:51:31.999Z,99644.09
2023-07-03T04:54:34.413Z,99639.69
2023-07-03T04:57:43.528Z,99625.47
2023-07-03T05:00:45.416Z,99635.16
2023-07-03T05:03:47.562Z,99641.53
2023-07-03T05:06:50.070Z,99640.53
2023-07-03T05:09:52.058Z,99644.38
2023-07-03T05:12:54.254Z,99649.34
2023-07-03T05:15:56.357Z,99652.72
2023-07-03T05:18:58.357Z,99655.41
2023-07-03T05:22:00.325Z,99651.91
2023-07-03T05:25:02.376Z,99652.34
2023-07-03T05:28:04.491Z,99648.06
2023-07-03T05:31:06.603Z,99659.25
2023-07-03T05:34:08.660Z,99660.41
2023-07-03T05:37:10.651Z,99658.28
2023-07-03T05:40:16.327Z,99661.47
2023-07-03T05:43:19.780Z,99650.44
2023-07-03T05:46:21.830Z,99653.47
2023-07-03T05:49:23.840Z,99655.50
2023-07-03T05:52:26.388Z,99657.53
2023-07-03T05:55:28.407Z,99664.59
2023-07-03T05:58:30.599Z,99657.94
2023-07-03T06:01:32.741Z,99659.63
2023-07-03T06:04:34.979Z,99663.38
2023-07-03T06:07:36.887Z,99666.72
2023-07-03T06:10:39.591Z,99672.91
2023-07-03T06:13:41.659Z,99680.97
2023-07-03T06:16:44.889Z,99691.81
2023-07-03T06:19:46.880Z,99693.31
2023-07-03T06:22:49.168Z,99693.81
2023-07-03T06:25:52.012Z,99690.16
2023-07-03T06:28:54.269Z,99697.88
2023-07-03T06:31:56.247Z,99700.09
2023-07-03T06:34:58.531Z,99700.03
2023-07-03T06:38:02.268Z,99694.97
2023-07-03T06:41:04.347Z,99695.81
2023-07-03T06:44:07.906Z,99695.13
2023-07-03T06:47:09.950Z,99692.62
2023-07-03T06:50:12.213Z,99691.13
2023-07-03T06:53:14.195Z,99687.47
2023-07-03T06:56:16.216Z,99701.25
2023-07-03T06:59:18.296Z,99686.84
2023-07-03T07:02:20.520Z,99697.78
2023-07-03T07:05:22.730Z,99694.22
2023-07-03T07:08:24.804Z,99696.75
2023-07-03T07:11:34.671Z,99700.25
2023-07-03T07:14:36.942Z,99704.31
2023-07-03T07:17:51.051Z,99699.59
2023-07-03T07:20:55.699Z,99702.13
2023-07-03T07:23:59.526Z,99711.19
2023-07-03T07:27:01.801Z,99709.66
2023-07-03T07:30:04.245Z,99713.69
2023-07-03T07:33:06.299Z,99699.09
2023-07-03T07:36:13.631Z,99713.03
2023-07-03T07:39:15.883Z,99702.63
2023-07-03T07:42:17.942Z,99707.97
2023-07-03T07:45:20.064Z,99710.66
2023-07-03T07:48:23.135Z,99709.16
2023-07-03T07:51:27.189Z,99711.66
2023-07-03T07:54:29.194Z,99712.34
2023-07-03T07:57:31.547Z,99719.59
2023-07-03T08:00:33.621Z,99728.47
2023-07-03T08:03:35.827Z,99725.47
2023-07-03T08:06:37.848Z,99733.00
2023-07-03T08:09:39.933Z,99738.22
2023-07-03T08:12:43.280Z,99738.19
2023-07-03T08:15:46.853Z,99741.91
2023-07-03T08:18:50.010Z,99748.94
2023-07-03T08:21:52.471Z,99737.19
2023-07-03T08:24:54.756Z,99747.97
2023-07-03T08:27:56.937Z,99745.28
2023-07-03T08:30:59.482Z,99740.56
2023-07-03T08:34:01.801Z,99743.75
2023-07-03T08:40:09.991Z,99752.00
2023-07-03T08:43:19.735Z,99742.56
2023-07-03T08:46:25.472Z,99749.97
2023-07-03T08:49:28.803Z,99746.28
2023-07-03T08:52:51.283Z,99749.97
2023-07-03T08:55:58.512Z,99746.62
2023-07-03T08:59:04.022Z,99757.19
2023-07-03T09:02:20.705Z,99761.38
2023-07-03T09:05:49.784Z,99759.72
2023-07-03T09:09:08.349Z,99758.88
2023-07-03T09:12:34.830Z,99758.19
2023-07-03T09:15:45.764Z,99770.81
2023-07-03T09:18:52.726Z,99773.63
2023-07-03T09:21:59.136Z,99774.81
2023-07-03T09:25:05.120Z,99778.50
2023-07-03T09:28:10.564Z,99783.19
2023-07-03T09:31:12.539Z,99783.19
2023-07-03T09:34:17.381Z,99785.91
2023-07-03T09:37:19.318Z,99778.00
2023-07-03T09:40:30.313Z,99782.03
2023-07-03T09:43:32.989Z,99778.16
2023-07-03T09:46:35.096Z,99761.53
2023-07-03T09:49:37.538Z,99761.88
2023-07-03T09:52:59.362Z,99747.59
2023-07-03T09:56:17.915Z,99749.28
2023-07-03T09:59:21.095Z,99757.69
2023-07-03T10:08:43.179Z,99761.00
2023-07-03T10:12:13.299Z,99748.94
2023-07-03T10:15:21.705Z,99756.69
2023-07-03T10:18:35.495Z,99762.31
2023-07-03T10:21:40.067Z,99756.25
2023-07-03T10:24:43.990Z,99761.09
2023-07-03T10:27:47.652Z,99759.78
2023-07-03T10:30:55.087Z,99770.16
2023-07-03T10:34:03.532Z,99768.59
2023-07-03T10:37:07.518Z,99767.06
2023-07-03T10:40:18.729Z,99768.50
2023-07-03T10:43:23.257Z,99761.91
2023-07-03T10:46:51.522Z,99760.44
2023-07-03T10:49:53.560Z,99764.41
2023-07-03T10:53:24.605Z,99769.03
2023-07-03T10:56:43.496Z,99768.66
2023-07-03T10:59:50.929Z,99771.06
2023-07-03T11:03:29.080Z,99772.00
2023-07-03T11:06:58.539Z,99767.47
2023-07-03T11:10:27.254Z,99751.31
2023-07-03T11:13:45.513Z,99747.84
2023-07-03T11:16:59.415Z,99744.94
2023-07-03T11:20:27.086Z,99735.56
2023-07-03T11:23:38.568Z,99730.00
2023-07-03T11:29:49.185Z,99739.31
2023-07-03T11:32:51.668Z,99729.44
2023-07-03T11:35:59.072Z,99732.78
2023-07-03T11:46:06.798Z,99738.09
2023-07-03T11:49:13.285Z,99728.03
2023-07-03T11:52:26.668Z,99726.47
2023-07-03T11:55:38.654Z,99726.50
2023-07-03T11:58:41.057Z,99723.56
2023-07-03T12:01:43.250Z,99723.56
2023-07-03T12:04:49.827Z,99723.66
2023-07-03T12:07:52.434Z,99719.78
2023-07-03T12:11:00.339Z,99719.41
2023-07-03T12:14:02.450Z,99724.72
2023-07-03T12:17:04.726Z,99720.94
2023-07-03T12:20:11.828Z,99718.41
2023-07-03T12:23:30.639Z,99716.22
2023-07-03T12:26:33.179Z,99721.88
2023-07-03T12:29:49.372Z,99716.16
2023-07-03T12:32:53.016Z,99712.41
2023-07-03T12:35:55.102Z,99699.47
2023-07-03T12:38:58.083Z,99705.78
2023-07-03T12:42:09.234Z,99692.25
2023-07-03T12:45:20.461Z,99703.50
2023-07-03T12:48:24.318Z,99689.81
2023-07-03T12:51:26.356Z,99688.13
2023-07-03T12:54:28.517Z,99690.00
2023-07-03T12:57:35.542Z,99690.13
2023-07-03T13:00:37.864Z,99682.47
2023-07-03T13:03:42.167Z,99668.72
2023-07-03T13:06:45.245Z,99673.75
2023-07-03T13:09:47.497Z,99673.84
2023-07-03T13:13:11.745Z,99667.56
2023-07-03T13:16:19.135Z,99666.69
2023-07-03T13:19:35.991Z,99662.50
2023-07-03T13:22:38.339Z,99659.97
2023-07-03T13:25:52.544Z,99662.16
2023-07-03T13:29:02.862Z,99654.62
2023-07-03T13:32:23.569Z,99657.22
2023-07-03T13:35:32.481Z,99659.28
2023-07-03T13:38:35.350Z,99655.94
2023-07-03T13:41:39.003Z,99659.94
2023-07-03T13:44:40.964Z,99665.63
2023-07-03T13:47:42.969Z,99655.69
2023-07-03T13:50:45.378Z,99654.19
2023-07-03T13:53:51.150Z,99653.16
2023-07-03T13:56:55.960Z,99660.25
2023-07-03T13:59:57.945Z,99656.53
2023-07-03T14:03:00.142Z,99653.59
2023-07-03T14:06:02.519Z,99646.69
2023-07-03T14:09:05.525Z,99640.63
2023-07-03T14:12:08.097Z,99642.19
2023-07-03T14:15:30.179Z,99640.34
2023-07-03T14:18:32.328Z,99644.38
2023-07-03T14:21:35.186Z,99641.78
2023-07-03T14:24:37.184Z,99641.34
2023-07-03T14:27:40.488Z,99637.22
2023-07-03T14:30:43.080Z,99642.84
2023-07-03T14:33:45.254Z,99634.16
2023-07-03T14:36:47.813Z,99636.78
2023-07-03T14:39:49.840Z,99630.94
2023-07-03T14:42:51.815Z,99636.25
2023-07-03T14:45:54.155Z,99638.97
2023-07-03T14:48:56.419Z,99634.09
2023-07-03T14:51:58.345Z,99627.69
2023-07-03T14:55:00.375Z,99628.50
2023-07-03T14:58:02.434Z,99633.50
2023-07-03T15:01:05.194Z,99619.75
2023-07-03T15:04:09.964Z,99621.22
2023-07-03T15:07:12.554Z,99629.34
2023-07-03T15:10:16.533Z,99629.72
2023-07-03T15:13:18.601Z,99629.91
2023-07-03T15:16:20.675Z,99628.69
2023-07-03T15:19:22.741Z,99613.31
2023-07-03T15:22:24.865Z,99612.06
2023-07-03T15:25:27.174Z,99613.53
2023-07-03T15:28:29.129Z,99608.97
2023-07-03T15:31:31.632Z,99605.19
2023-07-03T15:34:33.683Z,99605.59
2023-07-03T15:37:35.703Z,99595.59
2023-07-03T15:40:38.799Z,99595.56
2023-07-03T15:43:41.083Z,99599.28
2023-07-03T15:46:43.926Z,99597.22
2023-07-03T15:49:47.426Z,99597.41
2023-07-03T15:52:49.387Z,99596.25
2023-07-03T15:56:04.178Z,99598.41
2023-07-03T15:59:06.898Z,99592.25
2023-07-03T16:02:08.857Z,99583.69
2023-07-03T16:05:11.948Z,99579.78
2023-07-03T16:08:13.833Z,99576.63
2023-07-03T16:11:21.442Z,99576.88
2023-07-03T16:14:23.492Z,99573.59
2023-07-03T16:17:25.712Z,99582.50
2023-07-03T16:20:27.972Z,99593.34
2023-07-03T16:23:32.521Z,99593.25
2023-07-03T16:26:34.973Z,99594.59
2023-07-03T16:29:36.936Z,99588.19
2023-07-03T16:32:39.010Z,99583.41
2023-07-03T16:35:40.990Z,99579.22
2023-07-03T16:38:51.376Z,99584.63
2023-07-03T16:41:53.387Z,99593.03
2023-07-03T16:44:55.436Z,99595.72
2023-07-03T16:47:58.589Z,99591.44
2023-07-03T16:51:02.033Z,99599.44
2023-07-03T16:54:04.249Z,99592.66
2023-07-03T16:57:06.405Z,99592.00
2023-07-03T17:00:09.743Z,99604.63
2023-07-03T17:03:13.116Z,99606.91
2023-07-03T17:06:22.069Z,99605.28
2023-07-03T17:09:24.372Z,99598.41
2023-07-03T17:12:26.496Z,99604.59
2023-07-03T17:15:28.913Z,99611.94
2023-07-03T17:18:31.148Z,99610.88
2023-07-03T17:21:33.617Z,99611.81
2023-07-03T17:24:36.122Z,99611.47
2023-07-03T17:27:38.701Z,99611.78
2023-07-03T17:30:41.095Z,99614.31
2023-07-03T17:33:43.726Z,99607.03
2023-07-03T17:36:45.946Z,99609.28
2023-07-03T17:39:48.296Z,99612.56
2023-07-03T17:42:50.749Z,99609.28
2023-07-03T17:45:54.848Z,99614.63
2023-07-03T17:48:57.740Z,99607.66
2023-07-03T17:51:59.909Z,99604.84
2023-07-03T17:55:02.264Z,99614.41
2023-07-03T17:58:05.238Z,99615.31
2023-07-03T18:01:07.982Z,99604.19
2023-07-03T18:04:11.031Z,99611.06
2023-07-03T18:07:15.593Z,99602.50
2023-07-03T18:10:17.848Z,99606.16
2023-07-03T18:13:20.403Z,99614.25
2023-07-03T18:16:23.188Z,99620.00
2023-07-03T18:19:25.500Z,99618.28
2023-07-03T18:22:28.215Z,99620.94
2023-07-03T18:25:30.843Z,99615.09
2023-07-03T18:28:33.192Z,99613.91
2023-07-03T18:31:35.805Z,99612.97
2023-07-03T18:34:38.154Z,99618.53
2023-07-03T18:37:40.916Z,99615.38
2023-07-03T18:40:45.038Z,99611.09
2023-07-03T18:43:47.735Z,99611.84
2023-07-03T18:46:50.311Z,99623.22
2023-07-03T18:49:52.568Z,99621.09
2023-07-03T18:52:54.764Z,99623.12
2023-07-03T18:55:57.382Z,99622.28
2023-07-03T18:59:00.340Z,99622.81
2023-07-03T19:02:02.699Z,99617.25
2023-07-03T19:05:06.695Z,99627.37
2023-07-03T19:08:09.316Z,99626.75
2023-07-03T19:11:12.111Z,99632.31
2023-07-03T19:14:16.266Z,99633.41
2023-07-03T19:17:19.383Z,99630.91
2023-07-03T19:20:22.550Z,99638.16
2023-07-03T19:23:25.621Z,99642.37
2023-07-03T19:26:30.656Z,99641.06
2023-07-03T19:29:33.404Z,99644.31
2023-07-03T19:32:36.102Z,99644.00
2023-07-03T19:35:38.526Z,99641.41
2023-07-03T19:38:43.466Z,99650.16
2023-07-03T19:41:45.943Z,99646.12
2023-07-03T19:44:48.469Z,99641.81
2023-07-03T19:47:51.455Z,99639.72
2023-07-03T19:50:54.571Z,99655.53
2023-07-03T19:53:57.079Z,99657.56
2023-07-03T19:56:59.679Z,99659.44
2023-07-03T20:00:02.169Z,99651.03
2023-07-03T20:03:04.674Z,99653.06
2023-07-03T20:06:19.643Z,99655.75
2023-07-03T20:09:22.211Z,99650.37
2023-07-03T20:12:25.031Z,99660.50
2023-07-03T20:15:27.029Z,99649.25
2023-07-03T20:18:29.369Z,99644.72
2023-07-03T20:21:32.084Z,99648.41
2023-07-03T20:24:36.254Z,99655.16
2023-07-03T20:27:39.283Z,99655.16
2023-07-03T20:30:47.653Z,99662.56
2023-07-03T20:33:50.515Z,99670.66
2023-07-03T20:36:53.161Z,99671.66
2023-07-03T20:39:59.058Z,99665.25
2023-07-03T20:43:01.266Z,99665.25
2023-07-03T20:46:06.048Z,99667.31
2023-07-03T20:49:10.804Z,99667.69
2023-07-03T20:52:15.691Z,99665.00
2023-07-03T20:55:24.689Z,99671.06
2023-07-03T20:58:26.976Z,99663.53
2023-07-03T21:01:37.840Z,99666.75
2023-07-03T21:04:40.903Z,99673.81
2023-07-03T21:07:42.925Z,99674.88
2023-07-03T21:10:45.075Z,99675.91
2023-07-03T21:13:49.593Z,99675.56
2023-07-03T21:16:51.663Z,99680.63
2023-07-03T21:19:54.071Z,99676.44
2023-07-03T21:22:56.106Z,99679.84
2023-07-03T21:25:58.279Z,99683.03
2023-07-03T21:29:00.800Z,99680.03
2023-07-03T21:32:03.051Z,99684.41
2023-07-03T21:35:05.512Z,99684.41
2023-07-03T21:38:07.575Z,99683.41
2023-07-03T21:41:11.766Z,99675.00
2023-07-03T21:44:17.012Z,99683.72
2023-07-03T21:47:19.354Z,99681.03
2023-07-03T21:50:22.314Z,99675.16
2023-07-03T21:53:24.507Z,99662.69
2023-07-03T21:56:29.472Z,99672.28
2023-07-03T21:59:31.484Z,99658.66
2023-07-03T22:02:36.308Z,99667.22
2023-07-03T22:05:38.311Z,99665.37
2023-07-03T22:08:40.313Z,99654.81
2023-07-03T22:11:42.361Z,99653.78
2023-07-03T22:14:44.576Z,99664.19
2023-07-03T22:17:46.524Z,99654.06
2023-07-03T22:20:52.998Z,99655.78
2023-07-03T22:23:55.185Z,99656.41
2023-07-03T22:26:57.238Z,99657.78
2023-07-03T22:29:59.585Z,99662.53
2023-07-03T22:33:01.683Z,99672.81
2023-07-03T22:36:03.919Z,99673.37
2023-07-03T22:39:05.931Z,99663.97
2023-07-03T22:42:08.187Z,99668.69
2023-07-03T22:45:11.003Z,99665.69
2023-07-03T22:48:13.175Z,99658.13
2023-07-03T22:51:15.324Z,99660.81
2023-07-03T22:54:18.341Z,99671.75
2023-07-03T22:57:22.306Z,99670.72
2023-07-03T23:00:24.789Z,99685.50
2023-07-03T23:03:27.776Z,99686.19
2023-07-03T23:06:30.287Z,99695.09
2023-07-03T23:09:33.640Z,99697.91
2023-07-03T23:12:35.920Z,99698.91
2023-07-03T23:15:38.008Z,99697.56
2023-07-03T23:18:41.715Z,99698.91
2023-07-03T23:21:49.683Z,99696.06
2023-07-03T23:24:55.745Z,99705.56
2023-07-03T23:27:58.123Z,99707.56
2023-07-03T23:31:02.269Z,99711.22
2023-07-03T23:34:06.831Z,99706.38
2023-07-03T23:37:09.431Z,99700.41
2023-07-03T23:40:12.207Z,99719.41
2023-07-03T23:43:14.939Z,99717.69
2023-07-03T23:46:18.377Z,99726.03
2023-07-03T23:49:20.489Z,99712.13
2023-07-03T23:52:23.722Z,99704.25
2023-07-03T23:55:26.264Z,99706.25
2023-07-03T23:58:28.355Z,99697.47
